createdAt,value
2018-01-02T00:02:07.216Z,11.30
2018-01-02T00:04:33.728Z,6.97
2018-01-02T00:07:22.269Z,6.03
2018-01-02T00:09:48.933Z,5.00
2018-01-02T00:12:15.361Z,3.63
2018-01-02T00:14:42.612Z,10.33
2018-01-02T00:17:09.315Z,10.50
2018-01-02T00:19:35.953Z,4.97
2018-01-02T00:22:02.379Z,11.03
2018-01-02T00:24:28.958Z,5.67
2018-01-02T00:26:55.509Z,6.87
2018-01-02T00:29:22.231Z,8.20
2018-01-02T00:31:53.985Z,9.00
2018-01-02T00:34:20.801Z,9.17
2018-01-02T00:36:47.343Z,12.63
2018-01-02T00:39:14.371Z,6.83
2018-01-02T00:41:41.837Z,6.00
2018-01-02T00:44:08.377Z,6.33
2018-01-02T00:46:34.878Z,3.23
2018-01-02T00:49:01.259Z,3.03
2018-01-02T00:51:27.679Z,3.03
2018-01-02T00:53:54.901Z,2.80
2018-01-02T00:56:21.508Z,9.80
2018-01-02T00:58:48.713Z,5.27
2018-01-02T01:01:15.403Z,4.13
2018-01-02T01:03:42.342Z,4.60
2018-01-02T01:06:08.772Z,2.80
2018-01-02T01:08:35.887Z,9.43
2018-01-02T01:11:03.205Z,8.70
2018-01-02T01:13:29.639Z,5.00
2018-01-02T01:15:56.032Z,3.10
2018-01-02T01:18:22.548Z,4.53
2018-01-02T01:20:49.157Z,5.53
2018-01-02T01:23:15.645Z,7.37
2018-01-02T01:25:41.977Z,7.07
2018-01-02T01:28:08.353Z,8.83
2018-01-02T01:30:34.909Z,10.50
2018-01-02T01:33:01.707Z,3.73
2018-01-02T01:35:28.258Z,5.90
2018-01-02T01:37:55.857Z,7.63
2018-01-02T01:40:22.618Z,7.73
2018-01-02T01:42:49.054Z,9.23
2018-01-02T01:45:16.283Z,3.20
2018-01-02T01:47:42.842Z,8.43
2018-01-02T01:50:09.317Z,7.33
2018-01-02T01:52:35.862Z,6.00
2018-01-02T01:55:03.781Z,4.83
2018-01-02T01:57:30.516Z,4.23
2018-01-02T01:59:56.928Z,6.30
2018-01-02T02:02:23.644Z,6.00
2018-01-02T02:04:50.203Z,5.13
2018-01-02T02:07:16.918Z,3.90
2018-01-02T02:09:43.245Z,5.37
2018-01-02T02:12:09.630Z,5.03
2018-01-02T02:14:36.768Z,10.13
2018-01-02T02:17:15.534Z,4.90
2018-01-02T02:19:45.954Z,9.10
2018-01-02T02:22:12.722Z,7.23
2018-01-02T02:24:39.027Z,8.10
2018-01-02T02:27:05.970Z,9.00
2018-01-02T02:29:32.305Z,6.40
2018-01-02T02:31:59.480Z,6.50
2018-01-02T02:34:25.835Z,8.03
2018-01-02T02:36:52.196Z,7.30
2018-01-02T02:39:18.660Z,9.17
2018-01-02T02:41:45.165Z,7.13
2018-01-02T02:44:11.521Z,3.60
2018-01-02T02:46:37.912Z,4.23
2018-01-02T02:49:04.508Z,5.17
2018-01-02T02:51:30.901Z,12.30
2018-01-02T02:53:57.268Z,6.70
2018-01-02T02:56:23.729Z,2.60
2018-01-02T02:58:50.400Z,10.13
2018-01-02T03:01:16.824Z,9.10
2018-01-02T03:03:43.602Z,6.20
2018-01-02T03:06:10.118Z,11.07
2018-01-02T03:08:37.321Z,7.90
2018-01-02T03:11:03.896Z,11.00
2018-01-02T03:13:30.290Z,6.40
2018-01-02T03:15:57.074Z,7.47
2018-01-02T03:18:23.652Z,4.83
2018-01-02T03:20:50.000Z,17.57
2018-01-02T03:23:17.229Z,12.20
2018-01-02T03:25:43.916Z,4.67
2018-01-02T03:28:10.568Z,8.87
2018-01-02T03:30:37.019Z,9.77
2018-01-02T03:33:03.501Z,10.40
2018-01-02T03:35:29.869Z,9.17
2018-01-02T03:37:56.151Z,3.07
2018-01-02T03:40:22.725Z,12.70
2018-01-02T03:42:49.115Z,6.93
2018-01-02T03:45:15.491Z,8.73
2018-01-02T03:47:41.888Z,10.33
2018-01-02T03:50:08.239Z,10.53
2018-01-02T03:52:34.578Z,8.87
2018-01-02T03:55:01.899Z,5.40
2018-01-02T03:57:28.682Z,10.13
2018-01-02T03:59:55.711Z,10.80
2018-01-02T04:02:23.067Z,8.30
2018-01-02T04:04:49.406Z,6.53
2018-01-02T04:07:15.751Z,9.50
2018-01-02T04:09:42.104Z,7.70
2018-01-02T04:12:08.505Z,6.70
2018-01-02T04:14:34.841Z,4.10
2018-01-02T04:17:01.373Z,10.47
2018-01-02T04:19:27.797Z,7.87
2018-01-02T04:21:54.381Z,14.23
2018-01-02T04:24:21.140Z,7.47
2018-01-02T04:26:48.146Z,7.03
2018-01-02T04:29:15.059Z,9.53
2018-01-02T04:31:42.113Z,13.67
2018-01-02T04:34:09.277Z,12.20
2018-01-02T04:36:35.622Z,4.83
2018-01-02T04:39:02.419Z,10.23
2018-01-02T04:41:29.176Z,4.00
2018-01-02T04:43:55.530Z,8.63
2018-01-02T04:46:21.938Z,8.33
2018-01-02T04:48:54.507Z,8.03
2018-01-02T04:51:20.901Z,5.50
2018-01-02T04:53:48.117Z,5.87
2018-01-02T04:56:14.694Z,7.80
2018-01-02T04:58:41.153Z,9.60
2018-01-02T05:01:07.870Z,15.40
2018-01-02T05:03:34.392Z,8.07
2018-01-02T05:06:02.325Z,8.40
2018-01-02T05:08:28.830Z,8.30
2018-01-02T05:10:55.188Z,11.03
2018-01-02T05:13:21.712Z,12.30
2018-01-02T05:15:48.711Z,10.63
2018-01-02T05:18:16.095Z,9.17
2018-01-02T05:20:42.952Z,8.10
2018-01-02T05:23:09.997Z,11.37
2018-01-02T05:25:37.172Z,6.30
2018-01-02T05:28:03.504Z,10.73
2018-01-02T05:30:30.025Z,11.40
2018-01-02T05:32:56.403Z,7.07
2018-01-02T05:35:22.748Z,7.27
2018-01-02T05:37:49.092Z,11.33
2018-01-02T05:40:15.451Z,10.03
2018-01-02T05:42:41.855Z,8.30
2018-01-02T05:45:08.901Z,9.57
2018-01-02T05:47:35.383Z,12.70
2018-01-02T05:50:02.040Z,8.63
2018-01-02T05:52:28.662Z,7.83
2018-01-02T05:54:55.069Z,12.30
2018-01-02T05:57:21.599Z,11.13
2018-01-02T05:59:48.207Z,12.23
2018-01-02T06:02:14.668Z,11.43
2018-01-02T06:04:42.232Z,14.07
2018-01-02T06:07:09.415Z,21.53
2018-01-02T06:09:35.836Z,7.57
2018-01-02T06:12:02.772Z,15.63
2018-01-02T06:14:29.247Z,9.60
2018-01-02T06:16:55.615Z,17.47
2018-01-02T06:19:22.123Z,11.83
2018-01-02T06:21:48.611Z,16.67
2018-01-02T06:24:15.075Z,16.43
2018-01-02T06:26:41.705Z,14.90
2018-01-02T06:29:08.172Z,9.87
2018-01-02T06:31:34.631Z,20.57
2018-01-02T06:34:01.036Z,11.13
2018-01-02T06:36:27.515Z,19.27
2018-01-02T06:38:53.964Z,19.27
2018-01-02T06:41:20.503Z,17.90
2018-01-02T06:43:46.986Z,14.40
2018-01-02T06:46:13.403Z,22.13
2018-01-02T06:48:39.839Z,12.30
2018-01-02T06:51:06.318Z,18.53
2018-01-02T06:53:32.641Z,19.87
2018-01-02T06:55:59.775Z,21.10
2018-01-02T06:58:26.118Z,23.57
2018-01-02T07:00:52.422Z,23.73
2018-01-02T07:03:18.762Z,21.13
2018-01-02T07:05:45.164Z,16.60
2018-01-02T07:08:11.536Z,17.80
2018-01-02T07:10:37.900Z,20.57
2018-01-02T07:13:04.402Z,25.00
2018-01-02T07:15:31.483Z,17.87
2018-01-02T07:17:57.808Z,25.20
2018-01-02T07:20:24.207Z,19.93
2018-01-02T07:22:50.543Z,35.23
2018-01-02T07:25:17.627Z,27.77
2018-01-02T07:27:44.877Z,30.67
2018-01-02T07:30:11.290Z,21.00
2018-01-02T07:32:37.623Z,23.07
2018-01-02T07:35:04.007Z,25.43
2018-01-02T07:37:30.376Z,26.47
2018-01-02T07:39:56.904Z,31.87
2018-01-02T07:42:23.365Z,24.07
2018-01-02T07:44:51.231Z,35.63
2018-01-02T07:47:17.684Z,21.97
2018-01-02T07:49:44.035Z,26.97
2018-01-02T07:52:10.450Z,19.67
2018-01-02T07:54:37.601Z,32.87
2018-01-02T07:57:04.176Z,23.80
2018-01-02T07:59:30.584Z,26.93
2018-01-02T08:01:56.915Z,26.67
2018-01-02T08:04:23.333Z,31.07
2018-01-02T08:06:49.728Z,41.23
2018-01-02T08:09:16.073Z,27.43
2018-01-02T08:11:42.452Z,43.00
2018-01-02T08:14:08.792Z,31.13
2018-01-02T08:16:35.856Z,25.90
2018-01-02T08:19:02.216Z,31.77
2018-01-02T08:21:28.524Z,22.50
2018-01-02T08:23:55.060Z,30.90
2018-01-02T08:26:21.464Z,35.80
2018-01-02T08:28:47.811Z,35.37
2018-01-02T08:31:14.299Z,31.67
2018-01-02T08:33:40.693Z,34.77
2018-01-02T08:36:07.087Z,38.67
2018-01-02T08:38:34.153Z,32.30
2018-01-02T08:41:00.542Z,22.97
2018-01-02T08:43:26.904Z,34.53
2018-01-02T08:45:53.274Z,43.00
2018-01-02T08:48:19.691Z,45.70
2018-01-02T08:50:46.036Z,33.37
2018-01-02T08:53:12.387Z,44.93
2018-01-02T08:55:38.752Z,48.23
2018-01-02T08:58:05.103Z,35.17
2018-01-02T09:00:31.519Z,44.40
2018-01-02T09:02:57.916Z,51.80
2018-01-02T09:05:24.292Z,45.87
2018-01-02T09:07:50.615Z,52.83
2018-01-02T09:10:17.118Z,42.67
2018-01-02T09:12:47.091Z,41.00
2018-01-02T09:15:13.496Z,39.23
2018-01-02T09:17:40.010Z,38.00
2018-01-02T09:20:07.082Z,43.13
2018-01-02T09:22:33.617Z,50.13
2018-01-02T09:25:00.035Z,66.73
2018-01-02T09:27:26.425Z,45.83
2018-01-02T09:29:52.826Z,52.27
2018-01-02T09:32:19.306Z,49.00
2018-01-02T09:34:46.495Z,49.90
2018-01-02T09:37:12.950Z,59.97
2018-01-02T09:39:39.375Z,42.10
2018-01-02T09:42:05.863Z,46.60
2018-01-02T09:44:32.349Z,48.30
2018-01-02T09:46:59.329Z,50.27
2018-01-02T09:49:25.835Z,32.80
2018-01-02T09:51:53.234Z,55.90
2018-01-02T09:54:19.681Z,66.40
2018-01-02T09:56:46.101Z,56.43
2018-01-02T09:59:12.501Z,46.30
2018-01-02T10:01:38.952Z,55.20
2018-01-02T10:04:05.370Z,52.37
2018-01-02T10:06:31.700Z,47.97
2018-01-02T10:08:58.099Z,55.63
2018-01-02T10:11:24.715Z,59.50
2018-01-02T10:13:51.194Z,54.63
2018-01-02T10:16:17.716Z,52.63
2018-01-02T10:18:44.107Z,55.03
2018-01-02T10:21:10.621Z,45.57
2018-01-02T10:23:37.051Z,52.10
2018-01-02T10:26:03.822Z,48.03
2018-01-02T10:28:30.963Z,51.00
2018-01-02T10:30:57.852Z,53.60
2018-01-02T10:33:24.237Z,58.70
2018-01-02T10:35:51.347Z,46.90
2018-01-02T10:38:17.737Z,58.20
2018-01-02T10:40:44.287Z,39.43
2018-01-02T10:43:10.721Z,52.60
2018-01-02T10:45:37.324Z,51.77
2018-01-02T10:48:03.793Z,46.90
2018-01-02T10:50:30.194Z,63.60
2018-01-02T10:52:56.910Z,55.47
2018-01-02T10:55:23.403Z,37.17
2018-01-02T10:57:51.675Z,46.20
2018-01-02T11:00:18.107Z,47.40
2018-01-02T11:02:44.473Z,43.33
2018-01-02T11:05:11.661Z,44.10
2018-01-02T11:07:39.089Z,45.40
2018-01-02T11:10:05.609Z,43.07
2018-01-02T11:12:38.184Z,35.70
2018-01-02T11:15:04.731Z,43.67
2018-01-02T11:17:31.280Z,43.63
2018-01-02T11:19:57.746Z,43.07
2018-01-02T11:22:24.262Z,39.97
2018-01-02T11:24:50.779Z,50.27
2018-01-02T11:27:17.215Z,40.40
2018-01-02T11:29:43.805Z,39.63
2018-01-02T11:32:11.634Z,41.23
2018-01-02T11:34:38.119Z,39.37
2018-01-02T11:37:04.655Z,44.57
2018-01-02T11:39:31.206Z,37.07
2018-01-02T11:41:57.683Z,44.87
2018-01-02T11:44:24.092Z,41.37
2018-01-02T11:46:51.192Z,35.13
2018-01-02T11:49:17.595Z,40.43
2018-01-02T11:51:44.081Z,48.97
2018-01-02T11:54:10.504Z,37.53
2018-01-02T11:56:36.958Z,38.60
2018-01-02T11:59:03.364Z,37.53
2018-01-02T12:01:29.921Z,41.40
2018-01-02T12:03:56.399Z,33.80
2018-01-02T12:06:23.554Z,48.53
2018-01-02T12:08:50.636Z,37.60
2018-01-02T12:11:17.011Z,28.37
2018-01-02T12:13:43.470Z,38.63
2018-01-02T12:16:09.933Z,35.33
2018-01-02T12:18:36.313Z,38.93
2018-01-02T12:21:02.808Z,27.77
2018-01-02T12:23:29.144Z,43.37
2018-01-02T12:25:55.480Z,37.80
2018-01-02T12:28:22.018Z,38.77
2018-01-02T12:30:48.405Z,28.07
2018-01-02T12:33:14.860Z,23.90
2018-01-02T12:35:41.190Z,25.33
2018-01-02T12:38:07.625Z,21.40
2018-01-02T12:40:33.990Z,31.33
2018-01-02T12:43:00.424Z,36.00
2018-01-02T12:45:26.886Z,35.77
2018-01-02T12:47:53.364Z,29.17
2018-01-02T12:50:20.572Z,24.53
2018-01-02T12:52:47.651Z,29.00
2018-01-02T12:55:14.044Z,24.37
2018-01-02T12:57:40.494Z,38.00
2018-01-02T13:00:06.888Z,35.27
2018-01-02T13:02:33.313Z,23.67
2018-01-02T13:05:00.356Z,27.03
2018-01-02T13:07:27.339Z,24.90
2018-01-02T13:09:53.809Z,18.60
2018-01-02T13:12:20.291Z,23.07
2018-01-02T13:14:46.645Z,19.37
2018-01-02T13:17:13.889Z,37.80
2018-01-02T13:19:40.308Z,33.33
2018-01-02T13:22:06.696Z,31.80
2018-01-02T13:24:33.093Z,22.67
2018-01-02T13:26:59.668Z,31.80
2018-01-02T13:29:26.816Z,30.80
2018-01-02T13:31:53.175Z,25.77
2018-01-02T13:34:19.892Z,23.40
2018-01-02T13:36:46.265Z,21.90
2018-01-02T13:39:12.599Z,29.13
2018-01-02T13:41:38.983Z,31.40
2018-01-02T13:44:05.309Z,31.37
2018-01-02T13:46:31.702Z,24.87
2018-01-02T13:48:58.775Z,26.03
2018-01-02T13:51:25.245Z,28.23
2018-01-02T13:53:51.649Z,27.27
2018-01-02T13:56:18.128Z,33.03
2018-01-02T13:58:44.515Z,19.53
2018-01-02T14:01:10.897Z,25.30
2018-01-02T14:03:37.274Z,18.00
2018-01-02T14:06:03.714Z,39.50
2018-01-02T14:08:30.051Z,25.20
2018-01-02T14:10:56.476Z,24.47
2018-01-02T14:13:22.921Z,29.00
2018-01-02T14:15:49.348Z,24.47
2018-01-02T14:18:15.827Z,24.30
2018-01-02T14:20:42.386Z,25.87
2018-01-02T14:23:08.816Z,31.07
2018-01-02T14:25:35.208Z,30.93
2018-01-02T14:28:01.784Z,30.73
2018-01-02T14:30:28.158Z,21.40
2018-01-02T14:32:54.588Z,28.63
2018-01-02T14:35:21.344Z,38.70
2018-01-02T14:37:47.691Z,21.93
2018-01-02T14:40:14.128Z,32.60
2018-01-02T14:42:40.447Z,28.20
2018-01-02T14:45:06.848Z,27.90
2018-01-02T14:47:34.116Z,34.20
2018-01-02T14:50:01.289Z,31.50
2018-01-02T14:52:27.652Z,38.10
2018-01-02T14:54:54.020Z,26.00
2018-01-02T14:57:20.556Z,34.83
2018-01-02T14:59:54.262Z,38.40
2018-01-02T15:02:22.606Z,31.47
2018-01-02T15:04:48.988Z,53.97
2018-01-02T15:07:15.432Z,54.17
2018-01-02T15:09:42.750Z,37.47
2018-01-02T15:12:09.321Z,38.07
2018-01-02T15:14:37.084Z,32.83
2018-01-02T15:17:03.483Z,44.07
2018-01-02T15:19:29.950Z,35.33
2018-01-02T15:21:57.252Z,36.87
2018-01-02T15:24:24.438Z,44.97
2018-01-02T15:26:50.844Z,31.47
2018-01-02T15:29:17.423Z,37.30
2018-01-02T15:31:44.897Z,44.73
2018-01-02T15:34:11.311Z,31.90
2018-01-02T15:36:38.195Z,24.23
2018-01-02T15:39:04.810Z,45.63
2018-01-02T15:41:31.286Z,26.30
2018-01-02T15:43:58.558Z,30.83
2018-01-02T15:46:25.004Z,20.00
2018-01-02T15:48:51.423Z,30.73
2018-01-02T15:51:18.475Z,21.33
2018-01-02T15:53:45.764Z,21.90
2018-01-02T15:56:12.263Z,23.27
2018-01-02T15:58:39.093Z,24.40
2018-01-02T16:01:06.405Z,26.07
2018-01-02T16:03:32.841Z,26.27
2018-01-02T16:05:59.548Z,22.37
2018-01-02T16:08:25.976Z,19.43
2018-01-02T16:10:52.325Z,15.87
2018-01-02T16:13:19.000Z,22.20
2018-01-02T16:15:45.468Z,16.60
2018-01-02T16:18:11.873Z,14.27
2018-01-02T16:20:38.347Z,21.33
2018-01-02T16:23:04.903Z,21.33
2018-01-02T16:25:31.233Z,23.00
2018-01-02T16:27:57.560Z,24.07
2018-01-02T16:30:23.960Z,24.63
2018-01-02T16:32:50.672Z,18.00
2018-01-02T16:35:17.173Z,16.30
2018-01-02T16:37:45.569Z,18.23
2018-01-02T16:40:12.359Z,21.63
2018-01-02T16:42:38.996Z,25.30
2018-01-02T16:45:05.323Z,26.03
2018-01-02T16:47:31.682Z,31.60
2018-01-02T16:49:58.188Z,15.23
2018-01-02T16:52:24.586Z,30.40
2018-01-02T16:54:50.892Z,20.93
2018-01-02T16:57:17.354Z,24.83
2018-01-02T16:59:43.669Z,15.47
2018-01-02T17:02:10.011Z,24.20
2018-01-02T17:04:36.460Z,25.50
2018-01-02T17:07:03.280Z,21.40
2018-01-02T17:09:29.666Z,33.37
2018-01-02T17:11:56.227Z,25.87
2018-01-02T17:14:22.622Z,29.20
2018-01-02T17:16:48.967Z,23.03
2018-01-02T17:19:15.329Z,23.07
2018-01-02T17:21:41.695Z,29.10
2018-01-02T17:24:08.055Z,29.93
2018-01-02T17:26:34.514Z,28.47
2018-01-02T17:29:02.015Z,21.37
2018-01-02T17:31:28.332Z,28.43
2018-01-02T17:33:54.777Z,12.23
2018-01-02T17:36:21.225Z,18.27
2018-01-02T17:38:47.713Z,23.93
2018-01-02T17:41:14.140Z,17.67
2018-01-02T17:43:40.540Z,19.07
2018-01-02T17:46:06.901Z,14.37
2018-01-02T17:48:33.628Z,20.53
2018-01-02T17:51:00.052Z,18.00
2018-01-02T17:53:27.432Z,20.70
2018-01-02T17:55:53.936Z,19.53
2018-01-02T17:58:20.417Z,11.83
2018-01-02T18:00:48.167Z,12.73
2018-01-02T18:03:15.762Z,18.23
2018-01-02T18:05:42.167Z,14.23
2018-01-02T18:08:09.012Z,12.83
2018-01-02T18:10:35.368Z,12.33
2018-01-02T18:13:01.817Z,14.33
2018-01-02T18:15:28.272Z,9.10
2018-01-02T18:17:54.881Z,11.50
2018-01-02T18:20:21.293Z,13.70
2018-01-02T18:22:47.745Z,12.03
2018-01-02T18:25:14.141Z,9.93
2018-01-02T18:27:40.706Z,18.50
2018-01-02T18:30:08.059Z,10.00
2018-01-02T18:32:34.524Z,13.10
2018-01-02T18:35:01.129Z,13.37
2018-01-02T18:37:27.568Z,16.47
2018-01-02T18:39:54.270Z,18.43
2018-01-02T18:42:20.640Z,16.27
2018-01-02T18:44:47.112Z,15.40
2018-01-02T18:47:13.555Z,15.43
2018-01-02T18:49:40.064Z,12.97
2018-01-02T18:52:06.643Z,11.70
2018-01-02T18:54:33.135Z,13.80
2018-01-02T18:56:59.605Z,18.17
2018-01-02T18:59:26.944Z,14.33
2018-01-02T19:01:53.448Z,11.13
2018-01-02T19:04:19.876Z,16.27
2018-01-02T19:06:46.332Z,14.33
2018-01-02T19:09:13.281Z,17.23
2018-01-02T19:11:39.720Z,16.93
2018-01-02T19:14:06.454Z,30.27
2018-01-02T19:16:33.236Z,16.07
2018-01-02T19:19:00.735Z,20.87
2018-01-02T19:21:29.517Z,24.57
2018-01-02T19:23:57.164Z,27.10
2018-01-02T19:26:23.674Z,25.43
2018-01-02T19:28:50.249Z,19.20
2018-01-02T19:31:17.684Z,21.40
2018-01-02T19:33:44.494Z,18.87
2018-01-02T19:36:11.801Z,19.10
2018-01-02T19:38:38.365Z,25.33
2018-01-02T19:41:05.048Z,24.90
2018-01-02T19:43:31.733Z,19.47
2018-01-02T19:46:00.105Z,22.20
2018-01-02T19:48:26.562Z,17.70
2018-01-02T19:50:53.088Z,26.83
2018-01-02T19:53:20.688Z,23.00
2018-01-02T19:55:47.338Z,21.10
2018-01-02T19:58:13.860Z,20.40
2018-01-02T20:00:40.365Z,21.10
2018-01-02T20:03:07.010Z,22.27
2018-01-02T20:05:33.468Z,19.60
2018-01-02T20:08:00.623Z,21.63
2018-01-02T20:10:27.012Z,22.60
2018-01-02T20:12:53.721Z,21.60
2018-01-02T20:15:20.650Z,19.20
2018-01-02T20:17:47.150Z,19.30
2018-01-02T20:20:14.089Z,20.70
2018-01-02T20:22:40.573Z,27.00
2018-01-02T20:25:07.112Z,25.23
2018-01-02T20:27:33.698Z,34.10
2018-01-02T20:30:00.083Z,18.50
2018-01-02T20:32:26.446Z,25.27
2018-01-02T20:34:52.899Z,25.57
2018-01-02T20:37:20.238Z,23.33
2018-01-02T20:39:46.687Z,23.20
2018-01-02T20:42:13.948Z,30.17
2018-01-02T20:44:41.455Z,19.33
2018-01-02T20:47:08.325Z,20.93
2018-01-02T20:49:35.037Z,25.47
2018-01-02T20:52:01.989Z,24.33
2018-01-02T20:54:28.574Z,20.97
2018-01-02T20:56:55.104Z,31.37
2018-01-02T20:59:22.408Z,20.87
2018-01-02T21:01:49.879Z,22.03
2018-01-02T21:04:16.534Z,22.60
2018-01-02T21:06:43.233Z,29.97
2018-01-02T21:09:09.922Z,29.10
2018-01-02T21:11:36.406Z,23.67
2018-01-02T21:14:03.376Z,24.20
2018-01-02T21:16:30.005Z,27.67
2018-01-02T21:18:56.878Z,27.50
2018-01-02T21:21:23.608Z,23.20
2018-01-02T21:23:51.055Z,22.77
2018-01-02T21:26:17.683Z,19.80
2018-01-02T21:28:45.375Z,22.13
2018-01-02T21:31:12.202Z,25.50
2018-01-02T21:33:39.551Z,25.20
2018-01-02T21:36:06.076Z,18.83
2018-01-02T21:38:32.500Z,27.77
2018-01-02T21:40:58.975Z,21.73
2018-01-02T21:43:25.815Z,20.30
2018-01-02T21:45:53.042Z,23.43
2018-01-02T21:48:19.611Z,23.00
2018-01-02T21:50:47.085Z,19.63
2018-01-02T21:53:13.699Z,21.83
2018-01-02T21:55:40.898Z,21.03
2018-01-02T21:58:08.210Z,20.30
2018-01-02T22:00:35.036Z,23.80
2018-01-02T22:03:01.513Z,17.13
2018-01-02T22:05:28.704Z,22.20
2018-01-02T22:07:56.149Z,18.57
2018-01-02T22:10:22.617Z,18.20
2018-01-02T22:12:49.124Z,25.37
2018-01-02T22:15:15.615Z,21.73
2018-01-02T22:17:42.143Z,18.57
2018-01-02T22:20:08.656Z,18.97
2018-01-02T22:22:35.093Z,22.33
2018-01-02T22:25:02.328Z,38.87
2018-01-02T22:27:28.792Z,32.97
2018-01-02T22:29:56.335Z,23.67
2018-01-02T22:32:22.955Z,25.50
2018-01-02T22:34:49.624Z,23.20
2018-01-02T22:37:16.209Z,34.30
2018-01-02T22:39:43.729Z,27.30
2018-01-02T22:42:10.194Z,27.73
2018-01-02T22:44:36.737Z,26.13
2018-01-02T22:47:03.275Z,23.97
2018-01-02T22:49:29.762Z,22.63
2018-01-02T22:51:56.290Z,27.90
2018-01-02T22:54:22.735Z,27.80
2018-01-02T22:56:49.173Z,34.60
2018-01-02T22:59:17.590Z,28.90
2018-01-02T23:01:44.363Z,26.23
2018-01-02T23:04:10.992Z,33.27
2018-01-02T23:06:38.598Z,26.67
2018-01-02T23:09:05.621Z,29.27
2018-01-02T23:11:32.981Z,26.20
2018-01-02T23:13:59.531Z,24.07
2018-01-02T23:16:26.114Z,32.13
2018-01-02T23:18:52.623Z,32.50
2018-01-02T23:21:19.301Z,27.10
2018-01-02T23:23:46.452Z,32.63
2018-01-02T23:26:12.996Z,38.27
2018-01-02T23:28:39.438Z,38.03
2018-01-02T23:31:05.934Z,29.97
2018-01-02T23:33:32.380Z,40.87
2018-01-02T23:35:58.848Z,42.93
2018-01-02T23:38:25.275Z,28.17
2018-01-02T23:40:51.872Z,41.37
2018-01-02T23:43:19.439Z,27.67
2018-01-02T23:45:46.327Z,36.30
2018-01-02T23:48:12.820Z,36.53
2018-01-02T23:50:39.287Z,40.33
2018-01-02T23:53:06.504Z,41.50
2018-01-02T23:55:32.919Z,28.40
2018-01-02T23:58:00.659Z,31.33
